createdAt,value
2018-05-21T06:56:13.128Z,3.60
2018-05-21T06:58:45.228Z,4.03
2018-05-21T07:01:16.863Z,3.40
2018-05-21T07:03:48.294Z,4.00
2018-05-21T07:06:20.596Z,3.45
2018-05-21T07:08:51.583Z,3.58
2018-05-21T07:11:25.187Z,3.60
2018-05-21T07:14:00.846Z,3.35
2018-05-21T07:16:33.081Z,3.30
2018-05-21T07:19:06.527Z,3.10
2018-05-21T07:21:39.880Z,3.62
2018-05-21T07:24:12.394Z,3.60
2018-05-21T07:26:45.334Z,3.90
2018-05-21T07:29:16.893Z,3.60
2018-05-21T07:31:50.280Z,3.30
2018-05-21T07:34:23.715Z,3.50
2018-05-21T07:36:57.174Z,3.58
2018-05-21T07:39:28.735Z,2.97
2018-05-21T07:41:59.744Z,3.62
2018-05-21T07:44:30.760Z,3.42
2018-05-21T07:47:03.616Z,3.60
2018-05-21T07:49:37.070Z,3.20
2018-05-21T07:52:08.367Z,2.80
2018-05-21T07:54:40.736Z,3.17
2018-05-21T07:57:13.577Z,3.22
2018-05-21T07:59:44.759Z,3.37
2018-05-21T08:02:17.092Z,3.22
2018-05-21T08:04:48.435Z,3.22
2018-05-21T08:07:19.487Z,2.80
2018-05-21T08:09:50.855Z,3.15
2018-05-21T08:12:23.661Z,3.20
2018-05-21T08:14:54.974Z,3.40
2018-05-21T08:17:26.358Z,3.03
2018-05-21T08:19:57.406Z,2.62
2018-05-21T08:22:29.353Z,3.00
2018-05-21T08:25:00.931Z,3.12
2018-05-21T08:27:34.264Z,3.10
2018-05-21T08:30:05.797Z,2.85
2018-05-21T08:32:36.950Z,3.25
2018-05-21T08:35:07.956Z,3.00
2018-05-21T08:37:39.039Z,2.53
2018-05-21T08:40:14.118Z,3.30
2018-05-21T08:42:46.032Z,2.97
2018-05-21T08:45:18.401Z,2.83
2018-05-21T08:47:50.073Z,3.28
2018-05-21T08:50:21.659Z,2.90
2018-05-21T08:52:53.465Z,3.20
2018-05-21T08:55:25.583Z,3.05
2018-05-21T08:57:57.397Z,3.15
2018-05-21T09:00:29.902Z,3.30
2018-05-21T09:03:02.604Z,3.20
2018-05-21T09:05:35.929Z,3.05
2018-05-21T09:08:06.957Z,3.00
2018-05-21T09:10:38.273Z,3.10
2018-05-21T09:13:10.849Z,2.92
2018-05-21T09:15:42.043Z,2.80
2018-05-21T09:18:13.869Z,2.97
2018-05-21T09:20:45.594Z,3.28
2018-05-21T09:23:21.098Z,3.33
2018-05-21T09:25:52.722Z,3.00
2018-05-21T09:28:25.219Z,3.12
2018-05-21T09:30:56.202Z,3.00
2018-05-21T09:33:27.489Z,3.00
2018-05-21T09:36:02.160Z,2.90
2018-05-21T09:38:32.973Z,3.20
2018-05-21T09:41:03.974Z,3.00
2018-05-21T09:43:36.465Z,2.97
2018-05-21T09:46:08.293Z,2.90
2018-05-21T09:48:40.097Z,3.05
2018-05-21T09:51:12.043Z,3.00
2018-05-21T09:53:43.975Z,2.80
2018-05-21T09:56:15.981Z,2.83
2018-05-21T09:58:48.591Z,2.92
2018-05-21T10:01:21.155Z,2.90
2018-05-21T10:03:53.120Z,2.70
2018-05-21T10:06:25.511Z,2.75
2018-05-21T10:08:57.832Z,2.67
2018-05-21T10:11:33.814Z,2.83
2018-05-21T10:14:05.374Z,3.33
2018-05-21T10:16:37.725Z,2.95
2018-05-21T10:19:09.971Z,2.80
2018-05-21T10:21:43.011Z,2.80
2018-05-21T10:24:14.975Z,2.72
2018-05-21T10:26:47.019Z,3.30
2018-05-21T10:29:18.046Z,3.28
2018-05-21T10:31:53.101Z,3.00
2018-05-21T10:34:24.767Z,3.20
2018-05-21T10:36:55.751Z,2.85
2018-05-21T10:39:31.873Z,2.60
2018-05-21T10:42:03.573Z,2.65
2018-05-21T10:44:36.101Z,2.75
2018-05-21T10:47:07.711Z,2.97
2018-05-21T10:49:44.284Z,2.87
2018-05-21T10:52:16.836Z,3.00
2018-05-21T10:54:48.567Z,2.55
2018-05-21T10:57:24.425Z,3.00
2018-05-21T11:00:00.132Z,2.80
2018-05-21T11:02:32.004Z,2.97
2018-05-21T11:05:03.757Z,2.67
2018-05-21T11:07:39.279Z,2.70
2018-05-21T11:10:14.461Z,2.47
2018-05-21T11:12:47.148Z,2.80
2018-05-21T11:15:25.137Z,2.87
2018-05-21T11:18:03.904Z,2.80
2018-05-21T11:20:35.800Z,2.60
2018-05-21T11:23:08.279Z,3.00
2018-05-21T11:25:45.971Z,2.80
2018-05-21T11:28:19.118Z,2.70
2018-05-21T11:30:51.374Z,2.70
2018-05-21T11:33:26.809Z,2.70
2018-05-21T11:36:02.650Z,2.80
2018-05-21T11:38:34.913Z,2.53
2018-05-21T11:41:07.373Z,2.50
2018-05-21T11:43:43.073Z,2.90
2018-05-21T11:46:18.683Z,2.95
2018-05-21T11:48:51.358Z,2.72
2018-05-21T11:51:27.317Z,2.60
2018-05-21T11:54:03.811Z,3.03
2018-05-21T11:56:35.653Z,2.60
2018-05-21T11:59:08.201Z,2.50
2018-05-21T12:01:45.065Z,2.50
2018-05-21T12:04:16.839Z,2.83
2018-05-21T12:06:49.293Z,3.00
2018-05-21T12:09:24.747Z,2.80
2018-05-21T12:12:01.389Z,2.60
2018-05-21T12:14:32.905Z,2.60
2018-05-21T12:17:07.868Z,2.90
2018-05-21T12:19:44.013Z,2.65
2018-05-21T12:22:16.881Z,2.80
2018-05-21T12:24:49.645Z,2.58
2018-05-21T12:27:26.230Z,2.80
2018-05-21T12:30:02.307Z,2.47
2018-05-21T12:32:33.964Z,3.03
2018-05-21T12:35:05.498Z,2.78
2018-05-21T12:37:41.427Z,2.45
2018-05-21T12:40:15.283Z,2.50
2018-05-21T12:42:47.131Z,3.00
2018-05-21T12:45:23.854Z,2.72
2018-05-21T12:47:59.455Z,2.95
2018-05-21T12:50:32.033Z,2.80
2018-05-21T12:53:03.439Z,2.60
2018-05-21T12:55:39.789Z,2.75
2018-05-21T12:58:15.583Z,2.50
2018-05-21T13:00:51.347Z,2.42
2018-05-21T13:03:27.879Z,2.65
2018-05-21T13:06:03.576Z,2.60
2018-05-21T13:08:35.409Z,2.90
2018-05-21T13:11:08.736Z,2.78
2018-05-21T13:13:46.985Z,2.58
2018-05-21T13:16:18.781Z,2.58
2018-05-21T13:18:51.265Z,2.60
2018-05-21T13:21:26.965Z,3.10
2018-05-21T13:24:04.224Z,2.75
2018-05-21T13:26:35.995Z,2.35
2018-05-21T13:29:07.827Z,2.75
2018-05-21T13:31:43.468Z,2.83
2018-05-21T13:34:15.198Z,2.60
2018-05-21T13:36:47.639Z,2.50
2018-05-21T13:39:23.745Z,2.78
2018-05-21T13:41:59.244Z,2.90
2018-05-21T13:44:31.012Z,2.65
2018-05-21T13:47:02.604Z,2.50
2018-05-21T13:49:38.667Z,2.95
2018-05-21T13:52:14.605Z,2.70
2018-05-21T13:54:51.565Z,2.70
2018-05-21T13:57:26.885Z,2.67
2018-05-21T14:00:02.855Z,2.80
2018-05-21T14:02:34.657Z,2.47
2018-05-21T14:05:06.333Z,2.90
2018-05-21T14:07:42.905Z,3.15
2018-05-21T14:10:18.797Z,3.20
2018-05-21T14:12:50.401Z,2.90
2018-05-21T14:15:26.919Z,2.70
2018-05-21T14:18:02.545Z,3.00
2018-05-21T14:20:34.257Z,2.97
2018-05-21T14:23:06.636Z,3.05
2018-05-21T14:25:43.380Z,2.95
2018-05-21T14:28:14.971Z,2.47
2018-05-21T14:30:47.084Z,2.62
2018-05-21T14:33:22.739Z,2.65
2018-05-21T14:35:58.639Z,2.72
2018-05-21T14:38:30.749Z,2.75
2018-05-21T14:41:02.577Z,3.10
2018-05-21T14:43:38.193Z,2.80
2018-05-21T14:46:13.912Z,2.80
2018-05-21T14:48:49.537Z,2.70
2018-05-21T14:51:25.977Z,2.50
2018-05-21T14:54:02.538Z,2.58
2018-05-21T14:56:39.831Z,3.20
2018-05-21T14:59:12.511Z,3.10
2018-05-21T15:01:49.681Z,2.72
2018-05-21T15:04:21.491Z,2.90
2018-05-21T15:06:53.310Z,2.95
2018-05-21T15:09:29.471Z,2.80
2018-05-21T15:12:07.408Z,2.95
2018-05-21T15:14:39.174Z,2.80
2018-05-21T15:17:11.075Z,2.78
2018-05-21T15:19:45.890Z,2.70
2018-05-21T15:22:17.582Z,2.78
2018-05-21T15:24:49.523Z,2.95
2018-05-21T15:27:26.539Z,3.30
2018-05-21T15:30:02.290Z,3.20
2018-05-21T15:32:34.088Z,3.00
2018-05-21T15:35:05.728Z,3.10
2018-05-21T15:37:42.049Z,2.75
2018-05-21T15:40:18.349Z,2.97
2018-05-21T15:42:50.010Z,2.85
2018-05-21T15:45:26.229Z,3.47
2018-05-21T15:48:04.107Z,3.05
2018-05-21T15:50:35.835Z,2.87
2018-05-21T15:53:07.637Z,3.22
2018-05-21T15:55:43.811Z,3.30
2018-05-21T15:58:16.395Z,3.30
2018-05-21T16:00:53.155Z,3.37
2018-05-21T16:03:30.090Z,2.92
2018-05-21T16:06:05.569Z,2.97
2018-05-21T16:08:37.682Z,3.00
2018-05-21T16:11:09.761Z,2.80
2018-05-21T16:13:45.781Z,3.53
2018-05-21T16:16:18.224Z,3.20
2018-05-21T16:18:50.035Z,2.83
2018-05-21T16:21:26.633Z,3.65
2018-05-21T16:24:03.473Z,2.95
2018-05-21T16:26:34.979Z,2.90
2018-05-21T16:29:06.637Z,3.00
2018-05-21T16:31:42.368Z,2.75
2018-05-21T16:34:19.373Z,3.35
2018-05-21T16:36:55.115Z,3.10
2018-05-21T16:39:31.633Z,3.42
2018-05-21T16:42:07.193Z,3.30
2018-05-21T16:44:40.055Z,3.30
2018-05-21T16:47:12.405Z,3.08
2018-05-21T16:49:48.146Z,3.37
2018-05-21T16:52:20.310Z,3.45
2018-05-21T16:54:52.418Z,3.08
2018-05-21T16:57:28.394Z,3.03
2018-05-21T17:00:06.014Z,3.15
2018-05-21T17:02:38.421Z,3.20
2018-05-21T17:05:09.869Z,4.20
2018-05-21T17:07:45.777Z,3.05
2018-05-21T17:10:18.027Z,4.43
2018-05-21T17:12:53.877Z,4.60
2018-05-21T17:15:30.377Z,3.40
2018-05-21T17:18:06.140Z,3.10
2018-05-21T17:20:39.145Z,3.37
2018-05-21T17:23:10.940Z,5.37
2018-05-21T17:25:46.393Z,7.50
2018-05-21T17:28:17.478Z,3.60
2018-05-21T17:30:48.717Z,4.53
2018-05-21T17:33:23.644Z,7.30
2018-05-21T17:36:00.515Z,3.17
2018-05-21T17:38:31.513Z,12.70
2018-05-21T17:41:02.806Z,15.43
2018-05-21T17:43:38.526Z,9.10
2018-05-21T17:46:14.993Z,6.77
2018-05-21T17:48:46.023Z,12.83
2018-05-21T17:51:21.228Z,3.30
2018-05-21T17:53:56.024Z,6.50
2018-05-21T17:56:28.116Z,4.30
2018-05-21T17:58:59.101Z,6.17
2018-05-21T18:01:35.430Z,6.80
2018-05-21T18:04:10.994Z,11.40
2018-05-21T18:06:42.115Z,5.20
2018-05-21T18:09:13.075Z,4.50
2018-05-21T18:11:48.439Z,3.50
2018-05-21T18:14:23.689Z,3.80
2018-05-21T18:16:54.762Z,4.20
2018-05-21T18:19:30.015Z,3.53
2018-05-21T18:22:05.379Z,3.23
2018-05-21T18:24:36.489Z,2.73
2018-05-21T18:27:12.929Z,2.90
2018-05-21T18:29:48.867Z,3.60
2018-05-21T18:32:19.931Z,3.57
2018-05-21T18:34:51.951Z,3.77
2018-05-21T18:37:27.579Z,3.50
2018-05-21T18:40:02.715Z,3.60
2018-05-21T18:42:34.241Z,3.00
2018-05-21T18:45:05.655Z,3.30
2018-05-21T18:47:40.803Z,3.47
2018-05-21T18:50:15.341Z,3.50
2018-05-21T18:52:47.301Z,3.60
2018-05-21T18:55:23.019Z,3.30
2018-05-21T18:57:54.245Z,4.07
2018-05-21T19:00:25.327Z,3.77
2018-05-21T19:02:56.493Z,3.03
2018-05-21T19:05:32.197Z,3.23
2018-05-21T19:08:07.847Z,6.50
2018-05-21T19:10:39.587Z,8.87
2018-05-21T19:13:10.645Z,8.53
2018-05-21T19:15:45.449Z,3.83
2018-05-21T19:18:16.562Z,3.30
2018-05-21T19:20:49.858Z,2.80
2018-05-21T19:23:25.025Z,3.20
2018-05-21T19:25:59.921Z,3.40
2018-05-21T19:28:32.010Z,3.03
2018-05-21T19:31:03.216Z,2.70
2018-05-21T19:33:38.699Z,2.40
2018-05-21T19:36:14.799Z,3.10
2018-05-21T19:38:46.670Z,2.90
2018-05-21T19:41:21.433Z,2.80
2018-05-21T19:43:58.219Z,2.50
2018-05-21T19:46:29.339Z,2.70
2018-05-21T19:49:02.063Z,3.30
2018-05-21T19:51:36.899Z,2.57
2018-05-21T19:54:08.724Z,2.77
2018-05-21T19:56:40.641Z,3.30
2018-05-21T19:59:12.615Z,3.37
2018-05-21T20:01:47.533Z,3.30
2018-05-21T20:04:18.598Z,2.90
2018-05-21T20:06:49.723Z,3.00
2018-05-21T20:09:25.817Z,2.70
2018-05-21T20:12:00.498Z,2.83
2018-05-21T20:14:31.085Z,2.80
2018-05-21T20:17:02.286Z,2.90
2018-05-21T20:19:39.165Z,2.83
2018-05-21T20:22:13.628Z,3.00
2018-05-21T20:24:45.105Z,2.73
2018-05-21T20:27:20.033Z,2.97
2018-05-21T20:29:55.674Z,2.83
2018-05-21T20:32:27.363Z,3.07
2018-05-21T20:34:58.569Z,3.07
2018-05-21T20:37:33.763Z,2.80
2018-05-21T20:40:09.839Z,2.97
2018-05-21T20:42:41.685Z,3.23
2018-05-21T20:45:12.892Z,2.93
2018-05-21T20:47:47.653Z,3.00
2018-05-21T20:50:18.923Z,2.70
2018-05-21T20:52:50.839Z,2.87
2018-05-21T20:55:28.875Z,2.90
2018-05-21T20:58:03.547Z,2.70
2018-05-21T21:00:34.438Z,2.83
2018-05-21T21:03:06.525Z,3.03
2018-05-21T21:05:43.166Z,2.83
2018-05-21T21:08:17.979Z,2.70
2018-05-21T21:10:49.290Z,3.47
2018-05-21T21:13:23.994Z,2.70
2018-05-21T21:15:58.828Z,2.80
2018-05-21T21:18:31.652Z,2.67
2018-05-21T21:21:02.446Z,3.00
2018-05-21T21:23:38.065Z,2.70
2018-05-21T21:26:14.009Z,3.30
2018-05-21T21:28:45.508Z,2.60
2018-05-21T21:31:17.662Z,2.60
2018-05-21T21:33:53.483Z,2.63
2018-05-21T21:36:25.481Z,3.13
2018-05-21T21:38:57.389Z,2.60
2018-05-21T21:41:32.571Z,2.70
2018-05-21T21:44:07.365Z,2.23
2018-05-21T21:46:38.441Z,2.73
2018-05-21T21:49:09.259Z,2.63
2018-05-21T21:51:44.275Z,2.90
2018-05-21T21:54:15.011Z,2.87
2018-05-21T21:56:46.043Z,2.90
2018-05-21T21:59:20.454Z,2.67
2018-05-21T22:01:55.760Z,3.00
2018-05-21T22:04:26.505Z,2.60
2018-05-21T22:06:57.063Z,2.47
2018-05-21T22:09:33.607Z,2.40
2018-05-21T22:12:07.656Z,3.03
2018-05-21T22:14:39.021Z,2.90
2018-05-21T22:17:10.261Z,2.70
2018-05-21T22:19:45.116Z,2.67
2018-05-21T22:22:17.075Z,2.27
2018-05-21T22:24:48.969Z,2.90
2018-05-21T22:27:23.874Z,2.90
2018-05-21T22:29:59.517Z,2.47
2018-05-21T22:32:31.425Z,2.90
2018-05-21T22:35:02.470Z,2.60
2018-05-21T22:37:37.687Z,3.00
2018-05-21T22:40:12.317Z,2.70
2018-05-21T22:42:43.908Z,2.63
2018-05-21T22:45:19.728Z,2.90
2018-05-21T22:47:54.501Z,3.27
2018-05-21T22:50:26.137Z,3.00
2018-05-21T22:52:58.184Z,2.80
2018-05-21T22:55:33.239Z,2.83
2018-05-21T22:58:07.620Z,3.03
2018-05-21T23:00:38.484Z,2.90
2018-05-21T23:03:09.656Z,2.87
2018-05-21T23:05:44.555Z,2.97
2018-05-21T23:08:15.595Z,3.03
2018-05-21T23:10:46.771Z,2.70
2018-05-21T23:13:21.731Z,3.30
2018-05-21T23:15:57.133Z,3.00
2018-05-21T23:18:28.687Z,2.90
2018-05-21T23:21:00.885Z,3.20
2018-05-21T23:23:36.632Z,3.10
2018-05-21T23:26:07.874Z,3.10
2018-05-21T23:28:38.671Z,2.90
2018-05-21T23:31:09.782Z,3.07
2018-05-21T23:33:44.754Z,3.10
2018-05-21T23:36:15.893Z,2.90
2018-05-21T23:38:47.036Z,2.90
2018-05-21T23:41:21.794Z,3.27
2018-05-21T23:43:58.535Z,3.33
2018-05-21T23:46:29.442Z,3.07
2018-05-21T23:49:00.608Z,3.40
2018-05-21T23:51:35.403Z,3.07
2018-05-21T23:54:10.965Z,3.13
2018-05-21T23:56:42.176Z,3.00
2018-05-21T23:59:13.940Z,3.00
